Time;durP1;ratioP1;P1;durP2;ratioP2;P2;SDS_P1;SDS_P2;PMS_P1;PMS_P2;Temp;Humidity;BMP_temperature;BMP_pressure;BME280_temperature;BME280_humidity;BME280_pressure;Samples;Min_cycle;Max_cycle;Signal;HPM_P1;HPM_P2
2023/07/26 00:01:31;;;;;;;1.00;0.90;;;;;;;17.14;nan;99224.19;4981711;28;20478;-76
2023/07/26 00:03:58;;;;;;;2.60;1.30;;;;;;;17.13;nan;99226.00;4983894;28;20226;-76
2023/07/26 00:06:25;;;;;;;1.20;0.90;;;;;;;17.12;nan;99220.84;4980279;28;20218;-76
2023/07/26 00:08:51;;;;;;;1.40;1.00;;;;;;;17.11;nan;99219.19;4980297;28;20877;-76
2023/07/26 00:11:16;;;;;;;1.50;1.40;;;;;;;17.09;nan;99221.97;4979179;28;21264;-76
2023/07/26 00:13:41;;;;;;;1.20;1.10;;;;;;;17.08;nan;99224.78;4994574;23;20594;-78
2023/07/26 00:16:07;;;;;;;1.80;1.50;;;;;;;17.07;nan;99225.78;4947566;28;20225;-78
2023/07/26 00:18:32;;;;;;;2.03;1.40;;;;;;;17.07;nan;99220.47;4956946;28;20276;-79
2023/07/26 00:20:58;;;;;;;4.20;1.40;;;;;;;17.04;nan;99234.88;4964653;28;20214;-77
2023/07/26 00:23:23;;;;;;;2.40;1.80;;;;;;;17.06;nan;99234.72;4944597;28;20228;-78
2023/07/26 00:25:49;;;;;;;2.73;2.07;;;;;;;17.03;nan;99241.16;4964474;28;20645;-78
2023/07/26 00:28:14;;;;;;;2.07;1.67;;;;;;;17.02;nan;99232.34;4964474;28;20218;-77
2023/07/26 00:30:40;;;;;;;2.10;1.63;;;;;;;17.01;nan;99241.31;4944159;28;20802;-78
2023/07/26 00:33:05;;;;;;;1.93;1.60;;;;;;;16.99;nan;99243.25;4965230;28;20467;-78
2023/07/26 00:35:35;;;;;;;3.40;1.60;;;;;;;16.98;nan;99240.75;4963097;28;20778;-77
2023/07/26 00:38:01;;;;;;;2.33;1.60;;;;;;;16.96;nan;99240.91;4964800;28;20329;-77
2023/07/26 00:40:26;;;;;;;2.00;1.80;;;;;;;16.95;nan;99244.53;4963556;28;20519;-78
2023/07/26 00:42:52;;;;;;;2.93;1.80;;;;;;;16.93;nan;99238.56;4966698;28;20220;-78
2023/07/26 00:45:17;;;;;;;2.10;1.50;;;;;;;16.90;nan;99236.19;4965429;28;20277;-77
2023/07/26 00:47:43;;;;;;;2.10;1.70;;;;;;;16.89;nan;99242.47;4942726;28;20213;-78
2023/07/26 00:50:09;;;;;;;3.23;2.10;;;;;;;16.84;nan;99244.72;4964876;28;20575;-78
2023/07/26 00:52:35;;;;;;;3.40;2.07;;;;;;;16.80;nan;99251.31;4964595;28;20280;-79
2023/07/26 00:55:02;;;;;;;3.30;2.13;;;;;;;16.79;nan;99257.59;4963567;28;21470;-79
2023/07/26 00:57:29;;;;;;;3.47;1.40;;;;;;;16.74;nan;99250.06;4957873;28;20551;-79
2023/07/26 00:59:56;;;;;;;2.87;2.30;;;;;;;16.73;nan;99252.84;4963791;28;20454;-78
2023/07/26 01:02:21;;;;;;;4.13;2.10;;;;;;;16.69;nan;99259.41;4962279;28;20511;-77
2023/07/26 01:04:47;;;;;;;3.17;2.00;;;;;;;16.66;nan;99246.44;4964498;28;21453;-78
2023/07/26 01:07:20;;;;;;;2.80;1.60;;;;;;;16.62;nan;99245.06;4967099;28;20227;-78
2023/07/26 01:09:55;;;;;;;3.20;1.87;;;;;;;16.57;nan;99259.59;4965384;28;20228;-78
2023/07/26 01:12:39;;;;;;;1.87;1.67;;;;;;;16.52;nan;99267.13;4963705;28;20479;-79
2023/07/26 01:15:09;;;;;;;2.13;1.60;;;;;;;16.46;nan;99265.06;4964155;28;20514;-79
2023/07/26 01:17:35;;;;;;;2.90;2.00;;;;;;;16.41;nan;99262.00;4965149;28;20472;-78
2023/07/26 01:20:00;;;;;;;1.73;1.40;;;;;;;16.35;nan;99270.53;4965004;28;20463;-78
2023/07/26 01:22:26;;;;;;;2.60;2.03;;;;;;;16.29;nan;99265.81;4962014;28;20253;-78
2023/07/26 01:24:51;;;;;;;2.80;2.10;;;;;;;16.24;nan;99273.34;4961507;28;20294;-78
2023/07/26 01:27:17;;;;;;;6.40;2.70;;;;;;;16.19;nan;99267.63;4964617;28;20468;-77
2023/07/26 01:29:42;;;;;;;2.80;2.30;;;;;;;16.14;nan;99271.53;4965124;28;20214;-78
2023/07/26 01:32:10;;;;;;;3.50;2.23;;;;;;;16.08;nan;99277.41;4960545;28;20248;-78
2023/07/26 01:34:36;;;;;;;4.28;2.90;;;;;;;16.07;nan;99283.69;4960435;28;20448;-78
2023/07/26 01:37:03;;;;;;;3.10;2.42;;;;;;;16.03;nan;99277.00;4964234;28;20308;-78
2023/07/26 01:39:28;;;;;;;3.97;2.90;;;;;;;16.01;nan;99280.75;4960157;28;20229;-77
2023/07/26 01:41:55;;;;;;;3.40;2.67;;;;;;;15.98;nan;99275.75;4959082;28;20857;-78
2023/07/26 01:44:20;;;;;;;5.85;3.05;;;;;;;15.94;nan;99280.50;4962828;28;20480;-77
2023/07/26 01:46:45;;;;;;;5.83;2.80;;;;;;;15.91;nan;99278.13;4961582;28;20215;-78
2023/07/26 01:49:12;;;;;;;4.80;2.70;;;;;;;15.87;nan;99274.91;4964635;28;20382;-78
2023/07/26 01:51:38;;;;;;;3.72;2.58;;;;;;;15.83;nan;99280.63;4963154;28;21409;-78
2023/07/26 01:54:04;;;;;;;4.57;2.93;;;;;;;15.81;nan;99282.59;4961943;28;20769;-78
2023/07/26 01:56:29;;;;;;;3.93;2.90;;;;;;;15.79;nan;99279.22;4957081;28;20213;-78
2023/07/26 01:58:55;;;;;;;5.97;4.00;;;;;;;15.78;nan;99270.47;4951320;28;20458;-77
2023/07/26 02:01:20;;;;;;;4.17;2.77;;;;;;;15.76;nan;99271.56;4964026;28;20204;-77
2023/07/26 02:03:46;;;;;;;4.90;3.57;;;;;;;15.74;nan;99278.81;4944747;28;20231;-77
2023/07/26 02:06:12;;;;;;;4.10;3.70;;;;;;;15.74;nan;99281.44;4966484;28;20420;-78
2023/07/26 02:08:38;;;;;;;4.25;3.30;;;;;;;15.73;nan;99287.72;4967811;28;20210;-78
2023/07/26 02:11:03;;;;;;;3.73;2.90;;;;;;;15.70;nan;99286.19;4946073;28;20209;-78
2023/07/26 02:13:30;;;;;;;3.92;3.60;;;;;;;15.70;nan;99280.91;4946291;28;20251;-77
2023/07/26 02:15:55;;;;;;;4.07;3.47;;;;;;;15.70;nan;99292.31;4967007;28;20271;-77
2023/07/26 02:18:22;;;;;;;3.70;3.13;;;;;;;15.71;nan;99290.50;4967078;28;20205;-78
2023/07/26 02:20:47;;;;;;;6.30;3.83;;;;;;;15.72;nan;99289.56;4965891;28;20213;-79
2023/07/26 02:23:12;;;;;;;4.40;3.23;;;;;;;15.75;nan;99283.16;4956749;28;20465;-77
2023/07/26 02:25:38;;;;;;;5.00;3.97;;;;;;;15.76;nan;99290.94;4965101;28;20580;-77
2023/07/26 02:28:04;;;;;;;4.38;3.80;;;;;;;15.79;nan;99287.19;4966002;28;20260;-77
2023/07/26 02:30:30;;;;;;;3.87;3.47;;;;;;;15.79;nan;99289.81;4965089;28;20209;-77
2023/07/26 02:32:55;;;;;;;3.60;3.30;;;;;;;15.79;nan;99295.94;4945234;28;20836;-77
2023/07/26 02:35:21;;;;;;;5.07;3.78;;;;;;;15.78;nan;99298.75;4961190;28;20449;-77
2023/07/26 02:37:46;;;;;;;4.70;3.73;;;;;;;15.76;nan;99298.88;4956556;28;20770;-78
2023/07/26 02:40:12;;;;;;;3.70;3.40;;;;;;;15.77;nan;99303.22;4965274;28;20202;-77
2023/07/26 02:42:37;;;;;;;5.63;3.70;;;;;;;15.77;nan;99308.53;4964637;28;20301;-78
2023/07/26 02:45:03;;;;;;;6.20;3.30;;;;;;;15.79;nan;99311.84;4965809;28;20204;-78
2023/07/26 02:47:32;;;;;;;6.00;3.67;;;;;;;15.80;nan;99307.41;4965381;28;20268;-78
2023/07/26 02:50:01;;;;;;;4.10;3.70;;;;;;;15.77;nan;99302.34;4965558;28;20757;-77
2023/07/26 02:52:27;;;;;;;3.85;3.55;;;;;;;15.75;nan;99309.63;4966918;28;20218;-77
2023/07/26 02:54:52;;;;;;;4.70;3.57;;;;;;;15.73;nan;99308.91;4966194;28;20216;-77
2023/07/26 02:57:17;;;;;;;4.67;3.53;;;;;;;15.69;nan;99313.66;4964255;28;20689;-77
2023/07/26 02:59:43;;;;;;;4.67;3.60;;;;;;;15.66;nan;99312.09;4963866;28;20703;-77
2023/07/26 03:02:08;;;;;;;5.73;4.47;;;;;;;15.64;nan;99311.38;4956344;28;20685;-78
2023/07/26 03:04:34;;;;;;;4.20;3.77;;;;;;;15.64;nan;99311.38;4953677;28;20206;-78
2023/07/26 03:06:59;;;;;;;4.07;3.53;;;;;;;15.63;nan;99317.63;4968514;28;20225;-78
2023/07/26 03:09:24;;;;;;;6.40;4.50;;;;;;;15.66;nan;99316.53;4965475;28;20282;-77
2023/07/26 03:11:50;;;;;;;4.77;4.30;;;;;;;15.65;nan;99321.00;4965495;28;20252;-77
2023/07/26 03:14:15;;;;;;;5.90;3.57;;;;;;;15.67;nan;99324.34;4964999;28;20572;-77
2023/07/26 03:16:41;;;;;;;6.87;4.20;;;;;;;15.66;nan;99321.81;4965327;28;20214;-77
2023/07/26 03:19:06;;;;;;;4.10;3.70;;;;;;;15.67;nan;99315.56;4967584;28;20249;-77
2023/07/26 03:21:32;;;;;;;3.70;3.30;;;;;;;15.67;nan;99324.34;4964557;28;20779;-78
2023/07/26 03:23:57;;;;;;;3.80;3.37;;;;;;;15.69;nan;99316.31;4963560;28;20314;-77
2023/07/26 03:26:23;;;;;;;4.30;3.70;;;;;;;15.68;nan;99317.22;4946966;28;20233;-77
2023/07/26 03:28:48;;;;;;;4.03;3.50;;;;;;;15.68;nan;99320.75;4966399;28;20677;-77
2023/07/26 03:31:14;;;;;;;5.70;3.80;;;;;;;15.66;nan;99325.34;4965023;28;20210;-77
2023/07/26 03:33:39;;;;;;;4.27;3.77;;;;;;;15.65;nan;99323.63;4963919;28;20264;-77
2023/07/26 03:36:05;;;;;;;6.30;4.50;;;;;;;15.66;nan;99314.75;4964486;28;20974;-78
2023/07/26 03:38:30;;;;;;;7.27;4.90;;;;;;;15.64;nan;99324.63;4965620;28;20301;-78
2023/07/26 03:40:56;;;;;;;8.47;4.67;;;;;;;15.61;nan;99319.59;4966166;28;20213;-77
2023/07/26 03:43:21;;;;;;;8.05;5.68;;;;;;;15.62;nan;99323.09;4963426;28;21200;-77
2023/07/26 03:45:47;;;;;;;6.17;4.87;;;;;;;15.64;nan;99321.16;4964845;28;20203;-77
2023/07/26 03:48:13;;;;;;;12.30;6.83;;;;;;;15.65;nan;99323.63;4963563;28;20271;-78
2023/07/26 03:50:38;;;;;;;10.87;7.53;;;;;;;15.64;nan;99319.34;4942372;28;21036;-78
2023/07/26 03:53:06;;;;;;;12.45;6.15;;;;;;;15.64;nan;99308.75;4942696;28;20205;-78
2023/07/26 03:55:31;;;;;;;11.00;6.77;;;;;;;15.67;nan;99312.94;4964186;28;20660;-78
2023/07/26 03:57:57;;;;;;;8.07;6.27;;;;;;;15.70;nan;99317.97;4966037;28;20787;-78
2023/07/26 04:00:22;;;;;;;4.70;4.20;;;;;;;15.72;nan;99315.19;4962313;28;20998;-78
2023/07/26 04:02:48;;;;;;;4.30;3.33;;;;;;;15.70;nan;99326.75;4965034;28;20211;-78
2023/07/26 04:05:13;;;;;;;6.60;4.33;;;;;;;15.68;nan;99317.22;4964597;28;20207;-78
2023/07/26 04:07:39;;;;;;;7.30;4.77;;;;;;;15.69;nan;99327.72;4965511;28;20210;-78
2023/07/26 04:10:05;;;;;;;8.00;5.45;;;;;;;15.70;nan;99328.56;4965450;28;20202;-77
2023/07/26 04:12:31;;;;;;;7.00;4.87;;;;;;;15.71;nan;99327.56;4965002;28;20200;-78
2023/07/26 04:14:56;;;;;;;5.70;4.40;;;;;;;15.72;nan;99333.75;4964170;28;20489;-77
2023/07/26 04:17:22;;;;;;;4.60;3.80;;;;;;;15.75;nan;99330.81;4965308;28;20263;-77
2023/07/26 04:19:47;;;;;;;4.37;3.63;;;;;;;15.77;nan;99323.53;4964190;28;20289;-78
2023/07/26 04:22:13;;;;;;;9.50;4.07;;;;;;;15.78;nan;99330.53;4964189;28;20204;-79
2023/07/26 04:24:44;;;;;;;5.18;3.92;;;;;;;15.75;nan;99325.50;4964466;28;20207;-77
2023/07/26 04:27:10;;;;;;;4.03;3.72;;;;;;;15.74;nan;99335.25;4963519;28;20209;-77
2023/07/26 04:29:36;;;;;;;6.47;4.57;;;;;;;15.73;nan;99330.09;4963171;28;20210;-78
2023/07/26 04:32:01;;;;;;;3.70;3.23;;;;;;;15.75;nan;99336.09;4955274;28;20470;-78
2023/07/26 04:34:27;;;;;;;4.67;3.70;;;;;;;15.75;nan;99334.28;4942593;28;20324;-79
2023/07/26 04:36:52;;;;;;;4.50;3.80;;;;;;;15.78;nan;99347.25;4964331;28;20467;-78
2023/07/26 04:39:18;;;;;;;4.00;3.60;;;;;;;15.81;nan;99341.69;4964644;28;20218;-78
2023/07/26 04:41:43;;;;;;;3.80;3.27;;;;;;;15.80;nan;99347.13;4964247;28;20215;-78
2023/07/26 04:44:09;;;;;;;8.10;3.70;;;;;;;15.76;nan;99343.06;4963608;28;20282;-78
2023/07/26 04:46:35;;;;;;;4.03;3.25;;;;;;;15.76;nan;99354.50;4965031;28;20190;-78
2023/07/26 04:49:00;;;;;;;4.43;3.03;;;;;;;15.77;nan;99355.31;4966010;28;20304;-78
2023/07/26 04:51:25;;;;;;;4.13;3.80;;;;;;;15.79;nan;99363.97;4964345;28;20199;-79
2023/07/26 04:53:51;;;;;;;4.87;3.00;;;;;;;15.79;nan;99364.81;4961285;28;20222;-78
2023/07/26 04:56:17;;;;;;;3.53;3.20;;;;;;;15.79;nan;99370.09;4954319;28;21167;-79
2023/07/26 04:58:43;;;;;;;3.40;2.67;;;;;;;15.80;nan;99368.31;4959960;28;20198;-79
2023/07/26 05:01:08;;;;;;;4.05;3.10;;;;;;;15.79;nan;99369.28;4960559;28;20491;-78
2023/07/26 05:03:34;;;;;;;4.23;3.50;;;;;;;15.80;nan;99370.97;4960824;28;20679;-81
2023/07/26 05:05:59;;;;;;;4.07;3.00;;;;;;;15.83;nan;99371.53;4975875;28;20549;-78
2023/07/26 05:08:25;;;;;;;4.00;3.10;;;;;;;15.84;nan;99375.00;4960130;28;20210;-79
2023/07/26 05:10:51;;;;;;;2.60;2.40;;;;;;;15.83;nan;99375.97;4959461;28;20288;-79
2023/07/26 05:13:20;;;;;;;3.83;3.13;;;;;;;15.84;nan;99375.81;4959442;28;20226;-78
2023/07/26 05:15:46;;;;;;;4.45;3.28;;;;;;;15.83;nan;99378.63;4957247;28;20329;-78
2023/07/26 05:18:14;;;;;;;3.38;2.80;;;;;;;15.82;nan;99379.59;4958285;28;21025;-80
2023/07/26 05:20:40;;;;;;;4.05;3.05;;;;;;;15.83;nan;99389.22;4959141;28;20206;-79
2023/07/26 05:23:06;;;;;;;4.73;3.47;;;;;;;15.87;nan;99385.31;4951686;28;20288;-79
2023/07/26 05:25:32;;;;;;;4.13;2.87;;;;;;;15.88;nan;99379.06;4957422;28;20995;-79
2023/07/26 05:27:57;;;;;;;2.97;2.75;;;;;;;15.88;nan;99385.19;4960885;28;20704;-79
2023/07/26 05:30:23;;;;;;;4.03;3.17;;;;;;;15.91;nan;99384.91;4953980;28;20291;-80
2023/07/26 05:32:48;;;;;;;4.10;3.40;;;;;;;15.95;nan;99384.63;4956988;28;20203;-79
2023/07/26 05:35:13;;;;;;;3.73;3.23;;;;;;;15.96;nan;99389.81;4955860;28;20452;-79
2023/07/26 05:37:39;;;;;;;6.03;3.33;;;;;;;15.98;nan;99387.00;4957180;28;20524;-78
2023/07/26 05:40:05;;;;;;;3.43;3.23;;;;;;;15.97;nan;99383.53;4958160;28;20218;-79
2023/07/26 05:42:32;;;;;;;5.03;3.10;;;;;;;15.97;nan;99393.28;4956106;28;20843;-79
2023/07/26 05:44:57;;;;;;;3.22;3.03;;;;;;;15.97;nan;99382.69;4959286;28;20260;-79
2023/07/26 05:47:22;;;;;;;3.73;3.43;;;;;;;15.96;nan;99391.59;4959904;28;21030;-79
2023/07/26 05:49:48;;;;;;;3.43;2.90;;;;;;;15.93;nan;99385.63;4958340;28;20218;-79
2023/07/26 05:52:13;;;;;;;4.40;4.00;;;;;;;15.93;nan;99392.69;4955968;28;20245;-80
2023/07/26 05:54:39;;;;;;;5.10;3.53;;;;;;;15.89;nan;99392.16;4957321;28;20317;-79
2023/07/26 05:57:06;;;;;;;4.30;3.40;;;;;;;15.87;nan;99395.91;4952503;28;20222;-78
2023/07/26 05:59:31;;;;;;;4.30;3.80;;;;;;;15.87;nan;99409.16;4955372;28;20211;-79
2023/07/26 06:02:00;;;;;;;4.33;4.00;;;;;;;15.86;nan;99410.13;4954112;28;20918;-79
2023/07/26 06:04:28;;;;;;;6.22;4.13;;;;;;;15.85;nan;99411.97;4955608;28;20241;-78
2023/07/26 06:06:55;;;;;;;6.00;3.85;;;;;;;15.84;nan;99415.56;4956248;28;20214;-78
2023/07/26 06:09:21;;;;;;;4.95;3.60;;;;;;;15.80;nan;99414.16;4957283;28;21095;-78
2023/07/26 06:11:46;;;;;;;4.30;3.90;;;;;;;15.80;nan;99416.00;4956327;28;20209;-78
2023/07/26 06:14:12;;;;;;;6.70;3.57;;;;;;;15.79;nan;99414.28;4956410;28;21069;-77
2023/07/26 06:16:38;;;;;;;6.03;3.67;;;;;;;15.80;nan;99414.16;4953880;28;20207;-77
2023/07/26 06:19:03;;;;;;;8.93;3.27;;;;;;;15.82;nan;99411.38;4956238;28;20510;-77
2023/07/26 06:21:29;;;;;;;4.17;3.77;;;;;;;15.81;nan;99409.69;4955574;28;20217;-77
2023/07/26 06:23:54;;;;;;;5.93;4.13;;;;;;;15.76;nan;99410.09;4956186;28;20317;-76
2023/07/26 06:26:20;;;;;;;3.63;3.10;;;;;;;15.73;nan;99422.78;4956416;28;20213;-76
2023/07/26 06:28:46;;;;;;;6.10;3.53;;;;;;;15.69;nan;99423.06;4957811;28;20747;-76
2023/07/26 06:31:12;;;;;;;5.80;3.60;;;;;;;15.68;nan;99416.06;4955166;28;20205;-76
2023/07/26 06:33:37;;;;;;;4.00;3.60;;;;;;;15.69;nan;99417.75;4955629;28;20237;-76
2023/07/26 06:36:03;;;;;;;5.37;4.40;;;;;;;15.68;nan;99415.22;4953085;28;20672;-76
2023/07/26 06:38:28;;;;;;;3.60;2.37;;;;;;;15.74;nan;99419.16;4931622;28;21305;-76
2023/07/26 06:40:54;;;;;;;9.00;3.90;;;;;;;15.72;nan;99421.13;4954454;28;20236;-76
2023/07/26 06:43:19;;;;;;;3.63;3.33;;;;;;;15.75;nan;99421.69;4959824;28;20229;-76
2023/07/26 06:45:46;;;;;;;3.80;3.13;;;;;;;15.79;nan;99420.41;4959890;28;20217;-76
2023/07/26 06:48:12;;;;;;;6.95;3.80;;;;;;;15.82;nan;99421.97;4961101;28;20369;-76
2023/07/26 06:50:41;;;;;;;4.28;3.90;;;;;;;15.85;nan;99421.69;4958839;28;20208;-77
2023/07/26 06:53:07;;;;;;;4.68;4.00;;;;;;;15.91;nan;99414.03;4960372;28;20243;-76
2023/07/26 06:55:34;;;;;;;4.07;2.97;;;;;;;16.01;nan;99422.00;4959793;28;20691;-77
2023/07/26 06:57:59;;;;;;;3.55;2.67;;;;;;;16.13;nan;99420.91;4961355;28;20203;-77
2023/07/26 07:00:25;;;;;;;4.20;3.60;;;;;;;16.24;nan;99425.25;4957336;28;20262;-77
2023/07/26 07:03:00;;;;;;;3.60;3.00;;;;;;;16.32;nan;99425.41;4955947;28;20213;-77
2023/07/26 07:05:30;;;;;;;3.55;3.25;;;;;;;16.38;nan;99427.47;4961486;28;20292;-77
2023/07/26 07:07:56;;;;;;;4.80;3.15;;;;;;;16.50;nan;99422.03;4960189;28;20618;-77
2023/07/26 07:10:22;;;;;;;3.43;2.73;;;;;;;16.63;nan;99424.41;4959668;28;20215;-77
2023/07/26 07:12:48;;;;;;;5.18;3.75;;;;;;;16.81;nan;99420.94;4958209;28;20492;-78
2023/07/26 07:15:14;;;;;;;2.97;2.77;;;;;;;16.97;nan;99415.03;4954040;28;20222;-78
2023/07/26 07:17:39;;;;;;;2.97;2.60;;;;;;;17.10;nan;99413.91;4959004;28;20316;-78
2023/07/26 07:20:07;;;;;;;3.50;2.80;;;;;;;17.46;nan;99415.72;4958830;28;20301;-78
2023/07/26 07:22:33;;;;;;;2.63;2.42;;;;;;;18.17;nan;99408.06;4959291;28;20208;-79
2023/07/26 07:24:58;;;;;;;2.97;2.75;;;;;;;18.89;nan;99409.69;4957486;28;20203;-79
2023/07/26 07:27:24;;;;;;;2.80;2.53;;;;;;;19.56;nan;99403.75;4957809;28;20251;-78
2023/07/26 07:29:50;;;;;;;2.53;2.20;;;;;;;20.25;nan;99402.66;4959065;28;20199;-78
2023/07/26 07:32:16;;;;;;;2.63;2.40;;;;;;;20.72;nan;99404.69;4956663;28;20224;-78
2023/07/26 07:34:42;;;;;;;2.70;2.20;;;;;;;21.07;nan;99401.81;4956802;28;20482;-78
2023/07/26 07:37:07;;;;;;;3.37;2.37;;;;;;;21.14;nan;99403.63;4958106;28;20450;-78
2023/07/26 07:39:33;;;;;;;2.60;2.40;;;;;;;21.31;nan;99400.91;4958688;28;20216;-79
2023/07/26 07:41:59;;;;;;;2.70;1.50;;;;;;;21.53;nan;99402.03;4959216;28;20214;-79
2023/07/26 07:44:27;;;;;;;3.90;2.57;;;;;;;21.68;nan;99397.59;4961310;28;21070;-78
2023/07/26 07:46:53;;;;;;;4.63;2.70;;;;;;;21.62;nan;99407.16;4958847;28;20215;-78
2023/07/26 07:49:19;;;;;;;2.60;2.33;;;;;;;21.39;nan;99407.09;4957705;28;20460;-78
2023/07/26 07:51:44;;;;;;;2.27;2.07;;;;;;;21.47;nan;99405.38;4960551;28;20462;-78
2023/07/26 07:54:09;;;;;;;3.73;2.90;;;;;;;21.78;nan;99398.22;4955622;28;20601;-78
2023/07/26 07:56:35;;;;;;;3.40;2.80;;;;;;;22.09;nan;99405.44;4957301;28;20223;-79
2023/07/26 07:59:00;;;;;;;2.33;1.97;;;;;;;22.35;nan;99410.44;4957856;28;20212;-78
2023/07/26 08:01:26;;;;;;;2.40;2.00;;;;;;;22.58;nan;99407.78;4957194;28;20215;-79
2023/07/26 08:03:51;;;;;;;2.43;2.23;;;;;;;22.55;nan;99402.78;4960372;28;20238;-79
2023/07/26 08:06:17;;;;;;;3.00;2.60;;;;;;;22.56;nan;99403.59;4958576;28;20514;-78
2023/07/26 08:08:42;;;;;;;2.40;2.20;;;;;;;22.81;nan;99407.72;4959830;28;20218;-79
2023/07/26 08:11:08;;;;;;;3.83;2.70;;;;;;;22.99;nan;99415.47;4957325;28;20317;-79
2023/07/26 08:13:34;;;;;;;4.37;2.50;;;;;;;22.86;nan;99412.53;4957068;28;20259;-79
2023/07/26 08:15:59;;;;;;;3.27;2.30;;;;;;;22.79;nan;99406.25;4958048;28;20210;-79
2023/07/26 08:18:25;;;;;;;2.23;2.03;;;;;;;22.92;nan;99409.97;4959109;28;20323;-79
2023/07/26 08:20:50;;;;;;;3.17;2.30;;;;;;;23.03;nan;99403.34;4950615;28;20220;-79
2023/07/26 08:23:16;;;;;;;2.00;1.90;;;;;;;23.14;nan;99396.72;4956470;28;20931;-79
2023/07/26 08:25:41;;;;;;;4.13;2.83;;;;;;;23.10;nan;99406.97;4958001;28;20218;-78
2023/07/26 08:28:07;;;;;;;2.80;2.03;;;;;;;22.92;nan;99407.28;4958578;28;20220;-79
2023/07/26 08:30:32;;;;;;;3.87;2.57;;;;;;;22.90;nan;99412.00;4957776;28;20214;-80
2023/07/26 08:32:58;;;;;;;3.30;2.30;;;;;;;23.03;nan;99408.72;4957500;28;20215;-79
2023/07/26 08:35:23;;;;;;;4.40;2.10;;;;;;;23.04;nan;99407.72;4957714;28;20957;-79
2023/07/26 08:37:49;;;;;;;2.30;2.10;;;;;;;22.82;nan;99400.50;4959447;28;20226;-79
2023/07/26 08:40:14;;;;;;;3.70;2.50;;;;;;;22.46;nan;99396.63;4956460;28;20208;-78
2023/07/26 08:42:41;;;;;;;2.50;2.30;;;;;;;22.29;nan;99398.63;4955425;28;20218;-79
2023/07/26 08:45:07;;;;;;;3.83;2.10;;;;;;;22.28;nan;99394.28;4959835;28;20230;-79
2023/07/26 08:47:35;;;;;;;1.90;1.70;;;;;;;22.26;nan;99393.63;4956277;28;20470;-80
2023/07/26 08:50:00;;;;;;;3.07;2.07;;;;;;;22.12;nan;99389.00;4956698;28;20519;-79
2023/07/26 08:52:27;;;;;;;2.13;1.90;;;;;;;22.03;nan;99387.38;4958046;28;20612;-79
2023/07/26 08:54:52;;;;;;;1.93;1.83;;;;;;;22.17;nan;99386.66;4959699;28;20472;-79
2023/07/26 08:57:18;;;;;;;3.10;2.27;;;;;;;22.43;nan;99383.63;4966238;28;20453;-80
2023/07/26 08:59:44;;;;;;;3.50;2.03;;;;;;;22.49;nan;99380.25;4963801;28;20596;-79
2023/07/26 09:02:13;;;;;;;2.30;1.97;;;;;;;22.26;nan;99382.09;4955970;28;20847;-79
2023/07/26 09:04:39;;;;;;;2.33;1.80;;;;;;;21.98;nan;99385.25;4958200;28;20215;-79
2023/07/26 09:07:05;;;;;;;3.30;2.40;;;;;;;21.74;nan;99375.53;4957537;28;20447;-78
2023/07/26 09:09:35;;;;;;;3.33;2.20;;;;;;;21.46;nan;99385.84;4955961;28;20215;-79
2023/07/26 09:12:01;;;;;;;1.90;1.80;;;;;;;21.19;nan;99382.56;4953188;28;20565;-79
2023/07/26 09:14:28;;;;;;;2.10;1.87;;;;;;;20.98;nan;99390.28;4954595;28;21020;-79
2023/07/26 09:17:01;;;;;;;2.07;1.57;;;;;;;20.74;nan;99400.00;4957238;28;20434;-78
2023/07/26 09:19:35;;;;;;;7.17;2.50;;;;;;;20.57;nan;99394.84;4955976;28;20482;-78
2023/07/26 09:22:03;;;;;;;2.37;2.17;;;;;;;20.42;nan;99390.16;4955171;28;20469;-78
2023/07/26 09:24:36;;;;;;;2.10;1.90;;;;;;;20.25;nan;99386.66;4958316;28;21327;-78
2023/07/26 09:27:07;;;;;;;2.37;1.97;;;;;;;20.15;nan;99393.13;4957423;28;20499;-78
2023/07/26 09:29:34;;;;;;;2.10;1.90;;;;;;;20.11;nan;99395.28;4956502;28;20469;-78
2023/07/26 09:31:59;;;;;;;2.10;1.93;;;;;;;20.06;nan;99390.44;4957946;28;20460;-78
2023/07/26 09:34:25;;;;;;;3.73;2.40;;;;;;;19.91;nan;99397.41;4956499;28;20820;-79
2023/07/26 09:36:52;;;;;;;8.43;2.90;;;;;;;19.79;nan;99396.84;4958366;28;20475;-78
2023/07/26 09:39:20;;;;;;;2.90;2.60;;;;;;;19.73;nan;99399.34;4958257;28;20225;-79
2023/07/26 09:41:46;;;;;;;2.77;2.40;;;;;;;19.65;nan;99398.28;4954452;28;21383;-78
2023/07/26 09:44:17;;;;;;;2.80;2.60;;;;;;;19.61;nan;99399.59;4956250;28;20594;-82
2023/07/26 09:46:56;;;;;;;2.70;2.30;;;;;;;19.63;nan;99386.97;4963046;28;20466;-80
2023/07/26 09:49:24;;;;;;;3.00;2.70;;;;;;;19.89;nan;99396.72;4958009;28;20883;-80
2023/07/26 09:51:54;;;;;;;2.10;1.90;;;;;;;20.13;nan;99389.78;4957977;28;20444;-81
2023/07/26 09:54:21;;;;;;;2.83;2.17;;;;;;;20.46;nan;99382.63;4954092;28;20447;-78
2023/07/26 09:56:47;;;;;;;2.40;1.90;;;;;;;20.70;nan;99384.50;4958823;28;20513;-81
2023/07/26 09:59:14;;;;;;;1.60;1.47;;;;;;;20.90;nan;99387.63;4955139;28;20471;-82
2023/07/26 10:01:45;;;;;;;4.13;2.67;;;;;;;21.02;nan;99396.97;4957811;28;21199;-79
2023/07/26 10:04:39;;;;;;;2.60;2.03;;;;;;;20.98;nan;99399.16;4957861;28;20497;-77
2023/07/26 10:07:09;;;;;;;3.60;2.03;;;;;;;21.03;nan;99397.78;4958277;28;20445;-81
2023/07/26 10:09:35;;;;;;;2.40;1.80;;;;;;;21.12;nan;99394.94;4955159;28;20947;-82
2023/07/26 10:12:02;;;;;;;2.00;1.67;;;;;;;21.34;nan;99389.88;4957577;28;20520;-81
2023/07/26 10:14:29;;;;;;;3.70;2.10;;;;;;;21.78;nan;99390.19;4955610;28;21169;-82
2023/07/26 10:16:58;;;;;;;1.97;1.70;;;;;;;22.40;nan;99386.66;4958708;28;20437;-81
2023/07/26 10:19:26;;;;;;;2.20;2.00;;;;;;;22.93;nan;99384.84;4958227;28;20444;-81
2023/07/26 10:21:51;;;;;;;2.37;1.53;;;;;;;23.19;nan;99387.09;4962745;28;20472;-79
2023/07/26 10:24:19;;;;;;;2.80;1.60;;;;;;;23.29;nan;99383.34;4961498;28;20452;-82
2023/07/26 10:26:46;;;;;;;2.07;1.87;;;;;;;23.32;nan;99386.47;4960078;28;20220;-80
2023/07/26 10:29:12;;;;;;;2.90;2.57;;;;;;;23.38;nan;99385.72;4958111;28;20455;-81
2023/07/26 10:31:38;;;;;;;2.13;1.37;;;;;;;23.45;nan;99391.19;4959989;28;21276;-81
2023/07/26 10:34:03;;;;;;;2.73;1.50;;;;;;;23.55;nan;99388.22;4961758;28;20496;-80
2023/07/26 10:36:33;;;;;;;2.67;1.70;;;;;;;23.54;nan;99384.69;4960632;28;20934;-79
2023/07/26 10:39:05;;;;;;;2.70;1.90;;;;;;;23.45;nan;99385.81;4958003;28;20202;-80
2023/07/26 10:41:31;;;;;;;2.63;1.90;;;;;;;23.46;nan;99387.47;4960615;28;21181;-82
2023/07/26 10:44:08;;;;;;;1.73;1.53;;;;;;;23.43;nan;99382.47;4959974;28;20442;-78
2023/07/26 10:46:52;;;;;;;5.13;2.20;;;;;;;23.36;nan;99386.94;4958120;28;20200;-82
2023/07/26 10:49:26;;;;;;;1.67;1.37;;;;;;;23.33;nan;99387.28;4953875;28;20538;-81
2023/07/26 10:51:58;;;;;;;1.67;1.57;;;;;;;23.30;nan;99385.81;4960893;28;20523;-78
2023/07/26 10:54:48;;;;;;;2.05;1.90;;;;;;;23.25;nan;99388.25;4958081;28;20520;-81
2023/07/26 10:57:28;;;;;;;2.53;2.00;;;;;;;23.23;nan;99389.44;4960266;28;20229;-82
2023/07/26 11:00:10;;;;;;;2.17;1.80;;;;;;;23.21;nan;99386.09;4956089;28;20984;-80
2023/07/26 11:02:45;;;;;;;4.00;2.73;;;;;;;23.17;nan;99391.00;4959351;28;20474;-78
2023/07/26 11:05:16;;;;;;;2.80;2.10;;;;;;;23.24;nan;99386.56;4957908;28;20438;-81
2023/07/26 11:07:52;;;;;;;2.73;2.47;;;;;;;23.30;nan;99395.69;4960176;28;21037;-78
2023/07/26 11:10:24;;;;;;;4.03;2.23;;;;;;;23.30;nan;99382.31;4960631;28;20980;-82
2023/07/26 11:13:13;;;;;;;3.40;1.80;;;;;;;23.26;nan;99391.75;4958742;28;20478;-82
2023/07/26 11:15:43;;;;;;;2.50;2.00;;;;;;;23.26;nan;99395.25;4958781;28;21185;-78
2023/07/26 11:18:10;;;;;;;2.87;1.80;;;;;;;23.28;nan;99389.72;4957676;28;20567;-78
2023/07/26 11:20:45;;;;;;;2.60;2.27;;;;;;;23.29;nan;99394.88;4957384;28;20467;-78
2023/07/26 11:23:22;;;;;;;2.50;2.13;;;;;;;23.32;nan;99394.50;4961102;28;20505;-81
2023/07/26 11:25:52;;;;;;;1.40;1.30;;;;;;;23.26;nan;99395.25;4958515;28;20964;-78
2023/07/26 11:28:17;;;;;;;2.80;1.77;;;;;;;23.21;nan;99396.81;4960805;28;20424;-80
2023/07/26 11:30:56;;;;;;;1.57;1.40;;;;;;;23.17;nan;99389.16;4957019;28;20520;-79
2023/07/26 11:33:31;;;;;;;2.70;1.67;;;;;;;23.20;nan;99396.00;4948977;28;20222;-81
2023/07/26 11:35:59;;;;;;;3.20;2.00;;;;;;;23.18;nan;99398.84;4961068;28;20484;-81
2023/07/26 11:38:25;;;;;;;2.07;1.80;;;;;;;23.11;nan;99405.13;4958772;28;20459;-81
2023/07/26 11:40:53;;;;;;;2.00;1.60;;;;;;;23.03;nan;99414.06;4960175;28;20999;-79
2023/07/26 11:43:20;;;;;;;1.97;1.87;;;;;;;23.01;nan;99423.31;4958106;28;21084;-81
2023/07/26 11:45:45;;;;;;;8.37;2.40;;;;;;;22.96;nan;99413.97;4956798;28;20466;-81
2023/07/26 11:48:11;;;;;;;2.60;1.53;;;;;;;22.94;nan;99420.50;4962184;28;20469;-77
2023/07/26 11:50:38;;;;;;;2.20;2.00;;;;;;;22.93;nan;99421.53;4956063;28;20208;-79